sensor_id;sensor_type;location;lat;lon;timestamp;pressure;altitude;pressure_sealevel;temperature;humidity
5679;BME280;2862;52.560;13.566;2023-02-04T00:07:33;101324.44;;;3.35;96.23
5679;BME280;2862;52.560;13.566;2023-02-04T00:17:38;101356.81;;;3.19;96.99
5679;BME280;2862;52.560;13.566;2023-02-04T00:27:41;101379.41;;;3.06;97.16
5679;BME280;2862;52.560;13.566;2023-02-04T00:37:45;101418.97;;;3.08;95.24
5679;BME280;2862;52.560;13.566;2023-02-04T00:47:48;101479.47;;;2.92;92.60
5679;BME280;2862;52.560;13.566;2023-02-04T00:57:53;101517.75;;;2.82;90.62
5679;BME280;2862;52.560;13.566;2023-02-04T01:07:56;101555.75;;;2.78;91.09
5679;BME280;2862;52.560;13.566;2023-02-04T01:18:00;101588.84;;;2.63;90.20
5679;BME280;2862;52.560;13.566;2023-02-04T01:28:05;101627.94;;;2.53;88.44
5679;BME280;2862;52.560;13.566;2023-02-04T01:38:12;101657.38;;;2.41;91.13
5679;BME280;2862;52.560;13.566;2023-02-04T01:48:16;101688.50;;;2.31;90.37
5679;BME280;2862;52.560;13.566;2023-02-04T01:58:23;101715.16;;;2.24;90.67
5679;BME280;2862;52.560;13.566;2023-02-04T02:08:26;101743.91;;;2.31;92.39
5679;BME280;2862;52.560;13.566;2023-02-04T02:18:31;101785.34;;;2.28;94.07
5679;BME280;2862;52.560;13.566;2023-02-04T02:28:36;101807.38;;;2.27;93.80
5679;BME280;2862;52.560;13.566;2023-02-04T02:38:39;101836.78;;;2.15;94.40
5679;BME280;2862;52.560;13.566;2023-02-04T02:48:44;101869.69;;;2.03;95.86
5679;BME280;2862;52.560;13.566;2023-02-04T02:58:47;101899.13;;;1.88;97.41
5679;BME280;2862;52.560;13.566;2023-02-04T03:08:53;101909.09;;;1.76;98.48
5679;BME280;2862;52.560;13.566;2023-02-04T03:18:58;101942.91;;;1.60;98.93
5679;BME280;2862;52.560;13.566;2023-02-04T03:29:05;101966.19;;;1.45;99.69
5679;BME280;2862;52.560;13.566;2023-02-04T03:39:08;102001.78;;;1.27;100.00
5679;BME280;2862;52.560;13.566;2023-02-04T03:49:13;102030.84;;;1.22;100.00
5679;BME280;2862;52.560;13.566;2023-02-04T03:59:16;102067.50;;;1.31;100.00
5679;BME280;2862;52.560;13.566;2023-02-04T04:09:21;102091.44;;;1.59;99.97
5679;BME280;2862;52.560;13.566;2023-02-04T04:19:25;102115.66;;;1.75;98.43
5679;BME280;2862;52.560;13.566;2023-02-04T04:29:29;102139.34;;;1.77;99.35
5679;BME280;2862;52.560;13.566;2023-02-04T04:39:32;102163.72;;;1.51;100.00
5679;BME280;2862;52.560;13.566;2023-02-04T04:49:36;102187.06;;;1.68;100.00
5679;BME280;2862;52.560;13.566;2023-02-04T04:59:39;102205.28;;;1.77;99.55
5679;BME280;2862;52.560;13.566;2023-02-04T05:09:43;102235.00;;;1.43;100.00
5679;BME280;2862;52.560;13.566;2023-02-04T05:19:47;102259.69;;;1.41;100.00
5679;BME280;2862;52.560;13.566;2023-02-04T05:29:54;102273.72;;;1.41;100.00
5679;BME280;2862;52.560;13.566;2023-02-04T05:39:57;102303.13;;;1.20;100.00
5679;BME280;2862;52.560;13.566;2023-02-04T05:50:02;102323.31;;;1.21;100.00
5679;BME280;2862;52.560;13.566;2023-02-04T06:00:06;102347.22;;;1.09;100.00
5679;BME280;2862;52.560;13.566;2023-02-04T06:10:14;102366.19;;;0.78;100.00
5679;BME280;2862;52.560;13.566;2023-02-04T06:20:18;102382.06;;;0.75;100.00
5679;BME280;2862;52.560;13.566;2023-02-04T06:30:22;102405.75;;;0.75;100.00
5679;BME280;2862;52.560;13.566;2023-02-04T06:40:24;102425.91;;;0.74;100.00
5679;BME280;2862;52.560;13.566;2023-02-04T06:50:29;102433.66;;;0.87;100.00
5679;BME280;2862;52.560;13.566;2023-02-04T07:00:32;102435.34;;;0.89;100.00
5679;BME280;2862;52.560;13.566;2023-02-04T07:10:37;102444.28;;;1.31;100.00
5679;BME280;2862;52.560;13.566;2023-02-04T07:20:40;102452.38;;;2.57;94.72
5679;BME280;2862;52.560;13.566;2023-02-04T07:30:45;102460.06;;;3.06;92.84
5679;BME280;2862;52.560;13.566;2023-02-04T07:40:48;102478.22;;;3.56;88.40
5679;BME280;2862;52.560;13.566;2023-02-04T07:50:52;102508.50;;;3.77;87.80
5679;BME280;2862;52.560;13.566;2023-02-04T08:00:55;102530.53;;;3.79;88.50
5679;BME280;2862;52.560;13.566;2023-02-04T08:11:00;102556.97;;;4.11;86.70
5679;BME280;2862;52.560;13.566;2023-02-04T08:21:03;102567.53;;;4.76;83.97
5679;BME280;2862;52.560;13.566;2023-02-04T08:31:08;102569.25;;;4.46;87.46
5679;BME280;2862;52.560;13.566;2023-02-04T08:41:12;102578.91;;;5.64;80.60
5679;BME280;2862;52.560;13.566;2023-02-04T08:51:16;102584.91;;;5.43;78.04
5679;BME280;2862;52.560;13.566;2023-02-04T09:01:37;102603.59;;;5.10;80.54
5679;BME280;2862;52.560;13.566;2023-02-04T09:11:42;102612.16;;;4.90;79.63
5679;BME280;2862;52.560;13.566;2023-02-04T09:21:46;102628.00;;;4.93;80.63
5679;BME280;2862;52.560;13.566;2023-02-04T09:31:54;102655.56;;;5.17;78.24
5679;BME280;2862;52.560;13.566;2023-02-04T09:41:59;102668.63;;;5.23;77.33
5679;BME280;2862;52.560;13.566;2023-02-04T09:52:10;102679.13;;;5.56;75.12
5679;BME280;2862;52.560;13.566;2023-02-04T10:02:21;102681.03;;;5.79;73.79
5679;BME280;2862;52.560;13.566;2023-02-04T10:12:26;102683.25;;;4.76;75.50
5679;BME280;2862;52.560;13.566;2023-02-04T10:22:29;102693.97;;;4.71;75.59
5679;BME280;2862;52.560;13.566;2023-02-04T10:32:33;102703.38;;;4.15;77.93
5679;BME280;2862;52.560;13.566;2023-02-04T10:42:36;102710.66;;;4.05;76.08
5679;BME280;2862;52.560;13.566;2023-02-04T10:52:42;102706.50;;;5.28;72.55
5679;BME280;2862;52.560;13.566;2023-02-04T11:02:55;102714.75;;;4.54;70.53
5679;BME280;2862;52.560;13.566;2023-02-04T11:13:01;102708.03;;;5.06;68.62
5679;BME280;2862;52.560;13.566;2023-02-04T11:23:27;102720.19;;;5.13;68.58
5679;BME280;2862;52.560;13.566;2023-02-04T11:33:38;102730.41;;;4.96;70.43
5679;BME280;2862;52.560;13.566;2023-02-04T11:43:42;102748.16;;;4.60;68.49
5679;BME280;2862;52.560;13.566;2023-02-04T11:53:49;102748.75;;;4.71;69.25
5679;BME280;2862;52.560;13.566;2023-02-04T12:03:56;102763.88;;;4.32;68.97
5679;BME280;2862;52.560;13.566;2023-02-04T12:14:08;102755.75;;;4.02;67.51
5679;BME280;2862;52.560;13.566;2023-02-04T12:24:11;102757.44;;;4.05;65.86
5679;BME280;2862;52.560;13.566;2023-02-04T12:34:15;102771.78;;;4.67;65.27
5679;BME280;2862;52.560;13.566;2023-02-04T12:44:20;102770.03;;;5.00;63.80
5679;BME280;2862;52.560;13.566;2023-02-04T12:54:24;102765.38;;;5.09;60.10
5679;BME280;2862;52.560;13.566;2023-02-04T13:04:27;102792.13;;;4.30;63.04
5679;BME280;2862;52.560;13.566;2023-02-04T13:14:31;102787.00;;;4.23;62.89
5679;BME280;2862;52.560;13.566;2023-02-04T13:24:35;102799.22;;;4.31;62.92
5679;BME280;2862;52.560;13.566;2023-02-04T13:34:39;102803.84;;;4.21;63.81
5679;BME280;2862;52.560;13.566;2023-02-04T13:44:42;102823.13;;;3.87;65.41
5679;BME280;2862;52.560;13.566;2023-02-04T13:54:46;102821.88;;;3.63;64.19
5679;BME280;2862;52.560;13.566;2023-02-04T14:04:50;102821.06;;;4.00;62.77
5679;BME280;2862;52.560;13.566;2023-02-04T14:14:55;102815.84;;;4.36;62.34
5679;BME280;2862;52.560;13.566;2023-02-04T14:24:58;102827.19;;;4.04;62.85
5679;BME280;2862;52.560;13.566;2023-02-04T14:35:02;102832.78;;;4.29;59.11
5679;BME280;2862;52.560;13.566;2023-02-04T14:45:07;102856.38;;;3.99;60.10
5679;BME280;2862;52.560;13.566;2023-02-04T14:55:11;102847.56;;;3.57;59.52
5679;BME280;2862;52.560;13.566;2023-02-04T15:05:15;102870.16;;;3.28;59.00
5679;BME280;2862;52.560;13.566;2023-02-04T15:15:19;102889.00;;;3.08;59.96
5679;BME280;2862;52.560;13.566;2023-02-04T15:25:23;102892.13;;;3.30;63.54
5679;BME280;2862;52.560;13.566;2023-02-04T15:35:27;102880.75;;;3.27;60.74
5679;BME280;2862;52.560;13.566;2023-02-04T15:45:31;102894.47;;;2.99;60.04
5679;BME280;2862;52.560;13.566;2023-02-04T15:55:35;102898.59;;;2.60;61.46
5679;BME280;2862;52.560;13.566;2023-02-04T16:05:38;102908.47;;;2.46;63.62
5679;BME280;2862;52.560;13.566;2023-02-04T16:15:42;102922.97;;;2.16;63.79
5679;BME280;2862;52.560;13.566;2023-02-04T16:25:46;102925.19;;;1.78;65.08
5679;BME280;2862;52.560;13.566;2023-02-04T16:35:59;102934.91;;;1.72;63.96
5679;BME280;2862;52.560;13.566;2023-02-04T16:46:03;102942.97;;;1.59;64.40
5679;BME280;2862;52.560;13.566;2023-02-04T16:56:07;102947.53;;;1.42;66.29
5679;BME280;2862;52.560;13.566;2023-02-04T17:06:10;102954.00;;;1.09;68.91
5679;BME280;2862;52.560;13.566;2023-02-04T17:16:22;102967.28;;;0.92;69.51
5679;BME280;2862;52.560;13.566;2023-02-04T17:26:25;102978.81;;;0.71;70.02
5679;BME280;2862;52.560;13.566;2023-02-04T17:36:29;102978.00;;;0.65;69.15
5679;BME280;2862;52.560;13.566;2023-02-04T17:46:33;102989.47;;;0.53;69.09
5679;BME280;2862;52.560;13.566;2023-02-04T17:56:38;103002.63;;;0.45;69.86
5679;BME280;2862;52.560;13.566;2023-02-04T18:06:41;102993.00;;;0.43;70.06
5679;BME280;2862;52.560;13.566;2023-02-04T18:16:45;103000.13;;;0.15;70.37
5679;BME280;2862;52.560;13.566;2023-02-04T18:26:50;102999.31;;;0.01;71.34
5679;BME280;2862;52.560;13.566;2023-02-04T18:36:55;103008.13;;;-0.16;72.06
5679;BME280;2862;52.560;13.566;2023-02-04T18:46:58;103028.28;;;-0.41;73.30
5679;BME280;2862;52.560;13.566;2023-02-04T19:07:44;103044.94;;;-0.46;74.46
5679;BME280;2862;52.560;13.566;2023-02-04T19:17:49;103044.03;;;-0.64;74.63
5679;BME280;2862;52.560;13.566;2023-02-04T19:27:53;103045.81;;;-0.79;74.35
5679;BME280;2862;52.560;13.566;2023-02-04T19:38:00;103062.41;;;-0.94;74.39
5679;BME280;2862;52.560;13.566;2023-02-04T19:48:13;103062.41;;;-0.90;73.91
5679;BME280;2862;52.560;13.566;2023-02-04T19:58:21;103065.03;;;-0.88;73.01
5679;BME280;2862;52.560;13.566;2023-02-04T20:08:40;103073.81;;;-0.80;71.96
5679;BME280;2862;52.560;13.566;2023-02-04T20:18:45;103075.56;;;-0.82;71.74
5679;BME280;2862;52.560;13.566;2023-02-04T20:28:49;103085.16;;;-0.95;71.91
5679;BME280;2862;52.560;13.566;2023-02-04T20:38:57;103080.78;;;-0.88;71.85
5679;BME280;2862;52.560;13.566;2023-02-04T20:49:01;103097.41;;;-0.86;72.72
5679;BME280;2862;52.560;13.566;2023-02-04T20:59:18;103104.47;;;-0.79;73.93
5679;BME280;2862;52.560;13.566;2023-02-04T21:09:26;103093.03;;;-1.02;75.28
5679;BME280;2862;52.560;13.566;2023-02-04T21:19:31;103097.44;;;-0.82;76.02
5679;BME280;2862;52.560;13.566;2023-02-04T21:29:36;103088.66;;;-0.87;75.17
5679;BME280;2862;52.560;13.566;2023-02-04T21:39:40;103099.16;;;-0.93;75.05
5679;BME280;2862;52.560;13.566;2023-02-04T21:49:43;103117.56;;;-0.96;76.42
5679;BME280;2862;52.560;13.566;2023-02-04T21:59:48;103123.66;;;-1.03;76.76
5679;BME280;2862;52.560;13.566;2023-02-04T22:09:51;103124.53;;;-1.01;77.50
5679;BME280;2862;52.560;13.566;2023-02-04T22:19:56;103124.47;;;-1.16;78.24
5679;BME280;2862;52.560;13.566;2023-02-04T22:29:59;103117.47;;;-1.19;77.89
5679;BME280;2862;52.560;13.566;2023-02-04T22:40:09;103103.41;;;-1.33;77.05
5679;BME280;2862;52.560;13.566;2023-02-04T22:50:13;103107.84;;;-1.18;77.32
5679;BME280;2862;52.560;13.566;2023-02-04T23:00:17;103112.25;;;-1.03;77.51
5679;BME280;2862;52.560;13.566;2023-02-04T23:10:21;103114.06;;;-0.96;76.91
5679;BME280;2862;52.560;13.566;2023-02-04T23:20:25;103119.25;;;-1.05;75.54
5679;BME280;2862;52.560;13.566;2023-02-04T23:30:28;103107.94;;;-0.89;74.02
5679;BME280;2862;52.560;13.566;2023-02-04T23:40:33;103100.94;;;-0.81;73.82
5679;BME280;2862;52.560;13.566;2023-02-04T23:50:36;103101.81;;;-0.85;74.56
